sensor_id;sensor_type;location;lat;lon;timestamp;P1;durP1;ratioP1;P2;durP2;ratioP2
46363;SDS011;32071;49.036;9.344;2022-12-07T00:01:11;18.00;;;9.63;;
46363;SDS011;32071;49.036;9.344;2022-12-07T00:03:39;16.43;;;10.17;;
46363;SDS011;32071;49.036;9.344;2022-12-07T00:06:07;16.40;;;8.60;;
46363;SDS011;32071;49.036;9.344;2022-12-07T00:08:34;14.43;;;8.67;;
46363;SDS011;32071;49.036;9.344;2022-12-07T00:11:01;17.20;;;8.30;;
46363;SDS011;32071;49.036;9.344;2022-12-07T00:13:28;12.70;;;7.80;;
46363;SDS011;32071;49.036;9.344;2022-12-07T00:15:54;14.93;;;8.53;;
46363;SDS011;32071;49.036;9.344;2022-12-07T00:18:19;12.40;;;7.23;;
46363;SDS011;32071;49.036;9.344;2022-12-07T00:20:45;16.07;;;8.33;;
46363;SDS011;32071;49.036;9.344;2022-12-07T00:23:10;10.40;;;7.40;;
46363;SDS011;32071;49.036;9.344;2022-12-07T00:25:36;14.00;;;8.90;;
46363;SDS011;32071;49.036;9.344;2022-12-07T00:28:01;13.30;;;8.10;;
46363;SDS011;32071;49.036;9.344;2022-12-07T00:30:27;13.43;;;7.83;;
46363;SDS011;32071;49.036;9.344;2022-12-07T00:32:52;12.37;;;7.40;;
46363;SDS011;32071;49.036;9.344;2022-12-07T00:35:18;13.67;;;8.30;;
46363;SDS011;32071;49.036;9.344;2022-12-07T00:37:44;12.77;;;7.70;;
46363;SDS011;32071;49.036;9.344;2022-12-07T00:40:09;16.37;;;9.50;;
46363;SDS011;32071;49.036;9.344;2022-12-07T00:42:35;15.97;;;8.90;;
46363;SDS011;32071;49.036;9.344;2022-12-07T00:45:01;14.23;;;8.50;;
46363;SDS011;32071;49.036;9.344;2022-12-07T00:47:26;14.10;;;8.10;;
46363;SDS011;32071;49.036;9.344;2022-12-07T00:49:52;17.77;;;9.40;;
46363;SDS011;32071;49.036;9.344;2022-12-07T00:52:17;14.33;;;8.07;;
46363;SDS011;32071;49.036;9.344;2022-12-07T00:54:43;15.00;;;7.70;;
46363;SDS011;32071;49.036;9.344;2022-12-07T00:57:08;15.27;;;8.00;;
46363;SDS011;32071;49.036;9.344;2022-12-07T00:59:34;18.93;;;9.93;;
46363;SDS011;32071;49.036;9.344;2022-12-07T01:01:59;17.00;;;8.63;;
46363;SDS011;32071;49.036;9.344;2022-12-07T01:04:25;14.57;;;7.63;;
46363;SDS011;32071;49.036;9.344;2022-12-07T01:06:51;16.53;;;9.00;;
46363;SDS011;32071;49.036;9.344;2022-12-07T01:09:16;15.17;;;8.57;;
46363;SDS011;32071;49.036;9.344;2022-12-07T01:11:42;15.83;;;7.70;;
46363;SDS011;32071;49.036;9.344;2022-12-07T01:14:08;15.10;;;8.40;;
46363;SDS011;32071;49.036;9.344;2022-12-07T01:16:34;14.60;;;7.50;;
46363;SDS011;32071;49.036;9.344;2022-12-07T01:19:00;13.30;;;7.67;;
46363;SDS011;32071;49.036;9.344;2022-12-07T01:21:30;14.93;;;8.20;;
46363;SDS011;32071;49.036;9.344;2022-12-07T01:24:03;11.80;;;7.77;;
46363;SDS011;32071;49.036;9.344;2022-12-07T01:26:30;12.40;;;7.83;;
46363;SDS011;32071;49.036;9.344;2022-12-07T01:28:56;11.37;;;7.13;;
46363;SDS011;32071;49.036;9.344;2022-12-07T01:31:24;15.90;;;7.83;;
46363;SDS011;32071;49.036;9.344;2022-12-07T01:33:54;13.00;;;7.40;;
46363;SDS011;32071;49.036;9.344;2022-12-07T01:38:51;16.20;;;7.20;;
46363;SDS011;32071;49.036;9.344;2022-12-07T01:41:22;12.57;;;7.33;;
46363;SDS011;32071;49.036;9.344;2022-12-07T01:46:56;13.20;;;7.27;;
46363;SDS011;32071;49.036;9.344;2022-12-07T01:49:28;14.70;;;7.70;;
46363;SDS011;32071;49.036;9.344;2022-12-07T01:52:01;12.47;;;7.47;;
46363;SDS011;32071;49.036;9.344;2022-12-07T01:54:28;13.80;;;7.00;;
46363;SDS011;32071;49.036;9.344;2022-12-07T01:56:54;16.70;;;8.27;;
46363;SDS011;32071;49.036;9.344;2022-12-07T01:59:21;15.13;;;7.13;;
46363;SDS011;32071;49.036;9.344;2022-12-07T02:01:51;13.70;;;7.37;;
46363;SDS011;32071;49.036;9.344;2022-12-07T02:04:18;16.20;;;7.83;;
46363;SDS011;32071;49.036;9.344;2022-12-07T02:06:44;12.90;;;7.47;;
46363;SDS011;32071;49.036;9.344;2022-12-07T02:09:10;14.40;;;7.77;;
46363;SDS011;32071;49.036;9.344;2022-12-07T02:11:37;12.37;;;7.00;;
46363;SDS011;32071;49.036;9.344;2022-12-07T02:14:03;14.90;;;8.67;;
46363;SDS011;32071;49.036;9.344;2022-12-07T02:25:06;13.27;;;7.60;;
46363;SDS011;32071;49.036;9.344;2022-12-07T02:30:40;14.20;;;6.87;;
46363;SDS011;32071;49.036;9.344;2022-12-07T02:33:17;14.90;;;7.63;;
46363;SDS011;32071;49.036;9.344;2022-12-07T02:35:55;16.50;;;8.10;;
46363;SDS011;32071;49.036;9.344;2022-12-07T02:38:28;12.10;;;6.97;;
46363;SDS011;32071;49.036;9.344;2022-12-07T02:40:57;10.97;;;7.00;;
46363;SDS011;32071;49.036;9.344;2022-12-07T02:43:38;13.33;;;7.30;;
46363;SDS011;32071;49.036;9.344;2022-12-07T02:46:08;13.40;;;7.03;;
46363;SDS011;32071;49.036;9.344;2022-12-07T02:48:39;13.47;;;6.77;;
46363;SDS011;32071;49.036;9.344;2022-12-07T02:51:07;15.00;;;7.40;;
46363;SDS011;32071;49.036;9.344;2022-12-07T02:56:04;14.60;;;7.00;;
46363;SDS011;32071;49.036;9.344;2022-12-07T03:03:55;11.20;;;5.87;;
46363;SDS011;32071;49.036;9.344;2022-12-07T03:06:31;13.03;;;6.77;;
46363;SDS011;32071;49.036;9.344;2022-12-07T03:11:47;14.87;;;8.20;;
46363;SDS011;32071;49.036;9.344;2022-12-07T03:14:18;15.97;;;7.10;;
46363;SDS011;32071;49.036;9.344;2022-12-07T03:16:59;17.10;;;8.47;;
46363;SDS011;32071;49.036;9.344;2022-12-07T03:19:33;14.93;;;7.60;;
46363;SDS011;32071;49.036;9.344;2022-12-07T03:22:05;12.63;;;7.30;;
46363;SDS011;32071;49.036;9.344;2022-12-07T03:24:42;17.50;;;8.57;;
46363;SDS011;32071;49.036;9.344;2022-12-07T03:29:48;14.90;;;7.43;;
46363;SDS011;32071;49.036;9.344;2022-12-07T03:32:26;14.10;;;7.67;;
46363;SDS011;32071;49.036;9.344;2022-12-07T03:35:03;12.90;;;7.23;;
46363;SDS011;32071;49.036;9.344;2022-12-07T03:37:43;12.03;;;6.83;;
46363;SDS011;32071;49.036;9.344;2022-12-07T03:40:15;13.97;;;7.43;;
46363;SDS011;32071;49.036;9.344;2022-12-07T03:42:42;16.60;;;8.77;;
46363;SDS011;32071;49.036;9.344;2022-12-07T03:45:09;16.67;;;8.57;;
46363;SDS011;32071;49.036;9.344;2022-12-07T03:52:53;14.33;;;9.07;;
46363;SDS011;32071;49.036;9.344;2022-12-07T03:55:30;13.70;;;8.27;;
46363;SDS011;32071;49.036;9.344;2022-12-07T03:58:00;14.53;;;8.70;;
46363;SDS011;32071;49.036;9.344;2022-12-07T04:00:28;19.10;;;10.50;;
46363;SDS011;32071;49.036;9.344;2022-12-07T04:02:55;17.20;;;9.80;;
46363;SDS011;32071;49.036;9.344;2022-12-07T04:05:21;18.77;;;9.70;;
46363;SDS011;32071;49.036;9.344;2022-12-07T04:07:47;17.20;;;9.47;;
46363;SDS011;32071;49.036;9.344;2022-12-07T04:10:12;17.83;;;9.30;;
46363;SDS011;32071;49.036;9.344;2022-12-07T04:12:38;18.60;;;10.10;;
46363;SDS011;32071;49.036;9.344;2022-12-07T04:15:04;18.43;;;9.87;;
46363;SDS011;32071;49.036;9.344;2022-12-07T04:17:30;17.40;;;10.30;;
46363;SDS011;32071;49.036;9.344;2022-12-07T04:19:56;18.00;;;10.50;;
46363;SDS011;32071;49.036;9.344;2022-12-07T04:22:21;19.50;;;9.90;;
46363;SDS011;32071;49.036;9.344;2022-12-07T04:24:47;17.13;;;10.73;;
46363;SDS011;32071;49.036;9.344;2022-12-07T04:27:13;16.83;;;9.40;;
46363;SDS011;32071;49.036;9.344;2022-12-07T04:29:38;18.70;;;10.83;;
46363;SDS011;32071;49.036;9.344;2022-12-07T04:32:04;19.37;;;10.43;;
46363;SDS011;32071;49.036;9.344;2022-12-07T04:34:30;17.57;;;10.03;;
46363;SDS011;32071;49.036;9.344;2022-12-07T04:36:55;19.67;;;10.37;;
46363;SDS011;32071;49.036;9.344;2022-12-07T04:39:26;15.20;;;9.23;;
46363;SDS011;32071;49.036;9.344;2022-12-07T04:41:55;19.90;;;9.50;;
46363;SDS011;32071;49.036;9.344;2022-12-07T04:44:22;17.50;;;10.30;;
46363;SDS011;32071;49.036;9.344;2022-12-07T04:46:48;17.83;;;11.03;;
46363;SDS011;32071;49.036;9.344;2022-12-07T04:49:15;16.40;;;10.33;;
46363;SDS011;32071;49.036;9.344;2022-12-07T04:51:41;20.10;;;11.43;;
46363;SDS011;32071;49.036;9.344;2022-12-07T04:54:07;21.50;;;11.50;;
46363;SDS011;32071;49.036;9.344;2022-12-07T04:56:32;23.80;;;11.70;;
46363;SDS011;32071;49.036;9.344;2022-12-07T04:59:00;24.47;;;13.30;;
46363;SDS011;32071;49.036;9.344;2022-12-07T05:01:26;23.97;;;13.77;;
46363;SDS011;32071;49.036;9.344;2022-12-07T05:03:52;20.50;;;12.03;;
46363;SDS011;32071;49.036;9.344;2022-12-07T05:06:18;22.90;;;13.03;;
46363;SDS011;32071;49.036;9.344;2022-12-07T05:08:43;20.40;;;11.93;;
46363;SDS011;32071;49.036;9.344;2022-12-07T05:11:10;21.67;;;11.93;;
46363;SDS011;32071;49.036;9.344;2022-12-07T05:13:54;20.07;;;10.53;;
46363;SDS011;32071;49.036;9.344;2022-12-07T05:16:20;21.60;;;10.40;;
46363;SDS011;32071;49.036;9.344;2022-12-07T05:18:45;15.03;;;9.83;;
46363;SDS011;32071;49.036;9.344;2022-12-07T05:21:11;19.33;;;10.20;;
46363;SDS011;32071;49.036;9.344;2022-12-07T05:23:36;16.80;;;9.57;;
46363;SDS011;32071;49.036;9.344;2022-12-07T05:26:02;20.20;;;10.90;;
46363;SDS011;32071;49.036;9.344;2022-12-07T05:28:27;18.60;;;10.80;;
46363;SDS011;32071;49.036;9.344;2022-12-07T05:30:53;17.80;;;10.37;;
46363;SDS011;32071;49.036;9.344;2022-12-07T05:33:18;22.47;;;13.10;;
46363;SDS011;32071;49.036;9.344;2022-12-07T05:35:44;30.50;;;17.40;;
46363;SDS011;32071;49.036;9.344;2022-12-07T05:38:09;23.63;;;15.00;;
46363;SDS011;32071;49.036;9.344;2022-12-07T05:40:36;22.10;;;12.87;;
46363;SDS011;32071;49.036;9.344;2022-12-07T05:43:02;19.13;;;10.43;;
46363;SDS011;32071;49.036;9.344;2022-12-07T05:45:27;15.50;;;9.00;;
46363;SDS011;32071;49.036;9.344;2022-12-07T05:47:53;17.97;;;9.67;;
46363;SDS011;32071;49.036;9.344;2022-12-07T05:50:18;16.03;;;9.60;;
46363;SDS011;32071;49.036;9.344;2022-12-07T05:52:44;20.03;;;9.40;;
46363;SDS011;32071;49.036;9.344;2022-12-07T05:55:09;16.20;;;9.10;;
46363;SDS011;32071;49.036;9.344;2022-12-07T05:57:35;17.10;;;9.53;;
46363;SDS011;32071;49.036;9.344;2022-12-07T06:00:01;15.40;;;8.40;;
46363;SDS011;32071;49.036;9.344;2022-12-07T06:02:27;17.10;;;9.73;;
46363;SDS011;32071;49.036;9.344;2022-12-07T06:04:53;16.50;;;9.20;;
46363;SDS011;32071;49.036;9.344;2022-12-07T06:07:18;15.90;;;9.77;;
46363;SDS011;32071;49.036;9.344;2022-12-07T06:09:44;18.07;;;9.30;;
46363;SDS011;32071;49.036;9.344;2022-12-07T06:12:11;18.17;;;9.07;;
46363;SDS011;32071;49.036;9.344;2022-12-07T06:14:56;19.10;;;9.80;;
46363;SDS011;32071;49.036;9.344;2022-12-07T06:17:22;19.13;;;9.50;;
46363;SDS011;32071;49.036;9.344;2022-12-07T06:19:48;21.60;;;11.07;;
46363;SDS011;32071;49.036;9.344;2022-12-07T06:22:14;17.70;;;10.43;;
46363;SDS011;32071;49.036;9.344;2022-12-07T06:24:41;16.93;;;10.20;;
46363;SDS011;32071;49.036;9.344;2022-12-07T06:27:07;20.10;;;11.30;;
46363;SDS011;32071;49.036;9.344;2022-12-07T06:29:33;15.97;;;9.37;;
46363;SDS011;32071;49.036;9.344;2022-12-07T06:31:58;18.67;;;8.93;;
46363;SDS011;32071;49.036;9.344;2022-12-07T06:34:24;14.97;;;8.90;;
46363;SDS011;32071;49.036;9.344;2022-12-07T06:36:51;17.30;;;9.67;;
46363;SDS011;32071;49.036;9.344;2022-12-07T06:39:20;18.50;;;9.03;;
46363;SDS011;32071;49.036;9.344;2022-12-07T06:41:47;16.23;;;9.30;;
46363;SDS011;32071;49.036;9.344;2022-12-07T06:44:12;15.70;;;9.40;;
46363;SDS011;32071;49.036;9.344;2022-12-07T06:46:38;18.13;;;9.70;;
46363;SDS011;32071;49.036;9.344;2022-12-07T06:49:04;17.13;;;8.93;;
46363;SDS011;32071;49.036;9.344;2022-12-07T06:51:30;17.13;;;9.33;;
46363;SDS011;32071;49.036;9.344;2022-12-07T06:53:56;18.33;;;8.77;;
46363;SDS011;32071;49.036;9.344;2022-12-07T06:56:22;18.57;;;9.80;;
46363;SDS011;32071;49.036;9.344;2022-12-07T06:58:48;17.20;;;9.60;;
46363;SDS011;32071;49.036;9.344;2022-12-07T07:01:15;20.23;;;9.97;;
46363;SDS011;32071;49.036;9.344;2022-12-07T07:03:42;13.53;;;8.87;;
46363;SDS011;32071;49.036;9.344;2022-12-07T07:06:08;19.17;;;10.30;;
46363;SDS011;32071;49.036;9.344;2022-12-07T07:08:34;15.97;;;8.90;;
46363;SDS011;32071;49.036;9.344;2022-12-07T07:11:00;20.37;;;10.10;;
46363;SDS011;32071;49.036;9.344;2022-12-07T07:13:26;15.67;;;8.83;;
46363;SDS011;32071;49.036;9.344;2022-12-07T07:15:52;16.17;;;9.53;;
46363;SDS011;32071;49.036;9.344;2022-12-07T07:18:18;15.87;;;9.20;;
46363;SDS011;32071;49.036;9.344;2022-12-07T07:20:43;17.30;;;9.60;;
46363;SDS011;32071;49.036;9.344;2022-12-07T07:23:09;16.10;;;8.80;;
46363;SDS011;32071;49.036;9.344;2022-12-07T07:25:34;20.00;;;8.87;;
46363;SDS011;32071;49.036;9.344;2022-12-07T07:28:00;19.70;;;10.47;;
46363;SDS011;32071;49.036;9.344;2022-12-07T07:30:26;20.50;;;9.33;;
46363;SDS011;32071;49.036;9.344;2022-12-07T07:32:56;24.43;;;10.03;;
46363;SDS011;32071;49.036;9.344;2022-12-07T07:35:22;22.50;;;10.63;;
46363;SDS011;32071;49.036;9.344;2022-12-07T07:37:48;64.87;;;31.80;;
46363;SDS011;32071;49.036;9.344;2022-12-07T07:40:14;63.40;;;29.20;;
46363;SDS011;32071;49.036;9.344;2022-12-07T07:42:39;43.70;;;20.23;;
46363;SDS011;32071;49.036;9.344;2022-12-07T07:45:05;38.57;;;18.73;;
46363;SDS011;32071;49.036;9.344;2022-12-07T07:47:31;24.90;;;13.17;;
46363;SDS011;32071;49.036;9.344;2022-12-07T07:49:56;26.57;;;12.67;;
46363;SDS011;32071;49.036;9.344;2022-12-07T07:52:22;22.37;;;12.40;;
46363;SDS011;32071;49.036;9.344;2022-12-07T07:54:48;19.23;;;10.63;;
46363;SDS011;32071;49.036;9.344;2022-12-07T07:57:13;21.57;;;10.87;;
46363;SDS011;32071;49.036;9.344;2022-12-07T07:59:39;28.37;;;14.80;;
46363;SDS011;32071;49.036;9.344;2022-12-07T08:02:04;24.00;;;11.80;;
46363;SDS011;32071;49.036;9.344;2022-12-07T08:04:30;17.00;;;9.97;;
46363;SDS011;32071;49.036;9.344;2022-12-07T08:06:56;19.43;;;11.20;;
46363;SDS011;32071;49.036;9.344;2022-12-07T08:09:22;19.07;;;11.40;;
46363;SDS011;32071;49.036;9.344;2022-12-07T08:11:47;17.83;;;10.63;;
46363;SDS011;32071;49.036;9.344;2022-12-07T08:14:13;22.37;;;11.70;;
46363;SDS011;32071;49.036;9.344;2022-12-07T08:16:39;18.10;;;10.63;;
46363;SDS011;32071;49.036;9.344;2022-12-07T08:19:05;19.00;;;10.97;;
46363;SDS011;32071;49.036;9.344;2022-12-07T08:21:30;32.63;;;17.53;;
46363;SDS011;32071;49.036;9.344;2022-12-07T08:23:56;29.70;;;15.33;;
46363;SDS011;32071;49.036;9.344;2022-12-07T08:26:22;22.93;;;12.70;;
46363;SDS011;32071;49.036;9.344;2022-12-07T08:28:48;21.80;;;11.73;;
46363;SDS011;32071;49.036;9.344;2022-12-07T08:31:15;22.57;;;12.17;;
46363;SDS011;32071;49.036;9.344;2022-12-07T08:33:42;29.13;;;15.00;;
46363;SDS011;32071;49.036;9.344;2022-12-07T08:36:10;20.30;;;12.53;;
46363;SDS011;32071;49.036;9.344;2022-12-07T08:38:37;19.10;;;10.70;;
46363;SDS011;32071;49.036;9.344;2022-12-07T08:41:04;17.73;;;9.37;;
46363;SDS011;32071;49.036;9.344;2022-12-07T08:43:30;15.67;;;9.73;;
46363;SDS011;32071;49.036;9.344;2022-12-07T08:46:13;18.13;;;10.13;;
46363;SDS011;32071;49.036;9.344;2022-12-07T08:48:58;20.73;;;10.43;;
46363;SDS011;32071;49.036;9.344;2022-12-07T08:51:30;20.37;;;10.37;;
46363;SDS011;32071;49.036;9.344;2022-12-07T08:53:55;19.50;;;11.20;;
46363;SDS011;32071;49.036;9.344;2022-12-07T08:56:26;16.00;;;9.30;;
46363;SDS011;32071;49.036;9.344;2022-12-07T08:58:52;18.23;;;10.50;;
46363;SDS011;32071;49.036;9.344;2022-12-07T09:01:18;22.20;;;12.80;;
46363;SDS011;32071;49.036;9.344;2022-12-07T09:03:43;25.80;;;13.70;;
46363;SDS011;32071;49.036;9.344;2022-12-07T09:06:09;19.40;;;11.47;;
46363;SDS011;32071;49.036;9.344;2022-12-07T09:08:36;21.67;;;10.90;;
46363;SDS011;32071;49.036;9.344;2022-12-07T09:11:06;13.77;;;8.60;;
46363;SDS011;32071;49.036;9.344;2022-12-07T09:13:32;15.80;;;9.20;;
46363;SDS011;32071;49.036;9.344;2022-12-07T09:15:57;16.30;;;9.40;;
46363;SDS011;32071;49.036;9.344;2022-12-07T09:18:23;24.30;;;13.50;;
46363;SDS011;32071;49.036;9.344;2022-12-07T09:20:49;18.53;;;9.93;;
46363;SDS011;32071;49.036;9.344;2022-12-07T09:23:15;19.77;;;9.90;;
46363;SDS011;32071;49.036;9.344;2022-12-07T09:25:41;18.63;;;9.87;;
46363;SDS011;32071;49.036;9.344;2022-12-07T09:28:07;19.60;;;10.70;;
46363;SDS011;32071;49.036;9.344;2022-12-07T09:30:33;16.10;;;10.90;;
46363;SDS011;32071;49.036;9.344;2022-12-07T09:32:59;16.83;;;11.27;;
46363;SDS011;32071;49.036;9.344;2022-12-07T09:35:24;20.07;;;10.90;;
46363;SDS011;32071;49.036;9.344;2022-12-07T09:37:50;15.80;;;10.60;;
46363;SDS011;32071;49.036;9.344;2022-12-07T09:40:16;20.27;;;11.23;;
46363;SDS011;32071;49.036;9.344;2022-12-07T09:42:46;22.17;;;12.20;;
46363;SDS011;32071;49.036;9.344;2022-12-07T09:45:15;19.63;;;10.77;;
46363;SDS011;32071;49.036;9.344;2022-12-07T09:47:46;17.07;;;9.93;;
46363;SDS011;32071;49.036;9.344;2022-12-07T09:50:14;16.53;;;10.07;;
46363;SDS011;32071;49.036;9.344;2022-12-07T09:52:42;15.80;;;10.00;;
46363;SDS011;32071;49.036;9.344;2022-12-07T09:55:11;22.50;;;8.80;;
46363;SDS011;32071;49.036;9.344;2022-12-07T09:57:38;17.13;;;9.27;;
46363;SDS011;32071;49.036;9.344;2022-12-07T10:00:06;14.43;;;8.50;;
46363;SDS011;32071;49.036;9.344;2022-12-07T10:02:40;18.13;;;10.37;;
46363;SDS011;32071;49.036;9.344;2022-12-07T10:05:24;14.87;;;8.73;;
46363;SDS011;32071;49.036;9.344;2022-12-07T10:08:01;15.10;;;8.97;;
46363;SDS011;32071;49.036;9.344;2022-12-07T10:10:31;17.67;;;9.23;;
46363;SDS011;32071;49.036;9.344;2022-12-07T10:12:59;15.47;;;9.30;;
46363;SDS011;32071;49.036;9.344;2022-12-07T10:15:53;19.60;;;9.33;;
46363;SDS011;32071;49.036;9.344;2022-12-07T10:18:25;17.10;;;9.53;;
46363;SDS011;32071;49.036;9.344;2022-12-07T10:21:26;17.20;;;8.57;;
46363;SDS011;32071;49.036;9.344;2022-12-07T10:24:05;20.20;;;11.63;;
46363;SDS011;32071;49.036;9.344;2022-12-07T10:34:47;14.57;;;7.63;;
46363;SDS011;32071;49.036;9.344;2022-12-07T10:42:25;14.53;;;8.90;;
46363;SDS011;32071;49.036;9.344;2022-12-07T10:47:37;14.53;;;8.50;;
46363;SDS011;32071;49.036;9.344;2022-12-07T11:07:10;18.97;;;10.37;;
46363;SDS011;32071;49.036;9.344;2022-12-07T11:12:25;12.97;;;5.97;;
46363;SDS011;32071;49.036;9.344;2022-12-07T11:17:56;9.80;;;5.87;;
46363;SDS011;32071;49.036;9.344;2022-12-07T11:36:44;8.37;;;4.63;;
46363;SDS011;32071;49.036;9.344;2022-12-07T11:41:46;8.77;;;4.43;;
46363;SDS011;32071;49.036;9.344;2022-12-07T11:47:10;7.67;;;4.87;;
46363;SDS011;32071;49.036;9.344;2022-12-07T11:49:44;11.97;;;6.60;;
46363;SDS011;32071;49.036;9.344;2022-12-07T11:54:44;18.87;;;6.70;;
46363;SDS011;32071;49.036;9.344;2022-12-07T11:57:17;11.30;;;7.10;;
46363;SDS011;32071;49.036;9.344;2022-12-07T11:59:50;15.03;;;7.60;;
46363;SDS011;32071;49.036;9.344;2022-12-07T12:02:56;14.63;;;7.83;;
46363;SDS011;32071;49.036;9.344;2022-12-07T12:05:26;13.57;;;7.70;;
46363;SDS011;32071;49.036;9.344;2022-12-07T12:08:14;15.77;;;7.63;;
46363;SDS011;32071;49.036;9.344;2022-12-07T12:21:08;13.70;;;8.30;;
46363;SDS011;32071;49.036;9.344;2022-12-07T12:23:50;14.50;;;7.90;;
46363;SDS011;32071;49.036;9.344;2022-12-07T12:26:21;15.10;;;8.20;;
46363;SDS011;32071;49.036;9.344;2022-12-07T12:33:59;16.40;;;8.17;;
46363;SDS011;32071;49.036;9.344;2022-12-07T12:36:42;16.00;;;8.63;;
46363;SDS011;32071;49.036;9.344;2022-12-07T12:39:16;18.77;;;9.03;;
46363;SDS011;32071;49.036;9.344;2022-12-07T12:51:49;17.57;;;9.93;;
46363;SDS011;32071;49.036;9.344;2022-12-07T12:54:26;14.93;;;9.47;;
46363;SDS011;32071;49.036;9.344;2022-12-07T12:57:05;18.87;;;9.50;;
46363;SDS011;32071;49.036;9.344;2022-12-07T12:59:41;14.43;;;9.00;;
46363;SDS011;32071;49.036;9.344;2022-12-07T13:23:37;15.23;;;8.90;;
46363;SDS011;32071;49.036;9.344;2022-12-07T13:28:36;16.47;;;10.27;;
46363;SDS011;32071;49.036;9.344;2022-12-07T13:33:49;23.23;;;12.63;;
46363;SDS011;32071;49.036;9.344;2022-12-07T13:36:25;19.40;;;11.23;;
46363;SDS011;32071;49.036;9.344;2022-12-07T13:38:54;18.73;;;10.57;;
46363;SDS011;32071;49.036;9.344;2022-12-07T13:41:22;19.70;;;11.40;;
46363;SDS011;32071;49.036;9.344;2022-12-07T13:44:09;15.60;;;10.37;;
46363;SDS011;32071;49.036;9.344;2022-12-07T13:49:28;22.57;;;15.50;;
46363;SDS011;32071;49.036;9.344;2022-12-07T13:52:08;34.30;;;18.50;;
46363;SDS011;32071;49.036;9.344;2022-12-07T13:54:43;114.33;;;61.70;;
46363;SDS011;32071;49.036;9.344;2022-12-07T13:57:13;33.87;;;22.23;;
46363;SDS011;32071;49.036;9.344;2022-12-07T13:59:40;25.57;;;14.10;;
46363;SDS011;32071;49.036;9.344;2022-12-07T14:04:46;20.20;;;11.50;;
46363;SDS011;32071;49.036;9.344;2022-12-07T14:07:18;23.73;;;11.70;;
46363;SDS011;32071;49.036;9.344;2022-12-07T14:10:23;20.77;;;11.80;;
46363;SDS011;32071;49.036;9.344;2022-12-07T14:12:51;16.77;;;10.50;;
46363;SDS011;32071;49.036;9.344;2022-12-07T14:15:29;28.07;;;13.70;;
46363;SDS011;32071;49.036;9.344;2022-12-07T14:17:58;24.40;;;12.53;;
46363;SDS011;32071;49.036;9.344;2022-12-07T14:22:58;20.10;;;12.80;;
46363;SDS011;32071;49.036;9.344;2022-12-07T14:25:25;24.70;;;13.73;;
46363;SDS011;32071;49.036;9.344;2022-12-07T14:27:53;23.87;;;15.50;;
46363;SDS011;32071;49.036;9.344;2022-12-07T14:30:24;21.70;;;13.17;;
46363;SDS011;32071;49.036;9.344;2022-12-07T14:32:57;20.53;;;11.13;;
46363;SDS011;32071;49.036;9.344;2022-12-07T14:35:29;27.10;;;12.37;;
46363;SDS011;32071;49.036;9.344;2022-12-07T14:37:56;20.73;;;12.47;;
46363;SDS011;32071;49.036;9.344;2022-12-07T14:40:23;22.60;;;12.73;;
46363;SDS011;32071;49.036;9.344;2022-12-07T14:42:51;23.60;;;12.53;;
46363;SDS011;32071;49.036;9.344;2022-12-07T14:45:31;25.13;;;12.47;;
46363;SDS011;32071;49.036;9.344;2022-12-07T14:47:57;18.93;;;10.57;;
46363;SDS011;32071;49.036;9.344;2022-12-07T14:50:23;17.00;;;10.10;;
46363;SDS011;32071;49.036;9.344;2022-12-07T14:52:54;14.47;;;9.70;;
46363;SDS011;32071;49.036;9.344;2022-12-07T14:55:24;15.53;;;9.57;;
46363;SDS011;32071;49.036;9.344;2022-12-07T14:57:54;23.70;;;12.40;;
46363;SDS011;32071;49.036;9.344;2022-12-07T15:00:21;23.10;;;11.20;;
46363;SDS011;32071;49.036;9.344;2022-12-07T15:02:49;17.90;;;10.80;;
46363;SDS011;32071;49.036;9.344;2022-12-07T15:05:16;18.90;;;11.43;;
46363;SDS011;32071;49.036;9.344;2022-12-07T15:07:42;18.83;;;12.87;;
46363;SDS011;32071;49.036;9.344;2022-12-07T15:10:13;24.10;;;12.80;;
46363;SDS011;32071;49.036;9.344;2022-12-07T15:12:55;21.53;;;12.90;;
46363;SDS011;32071;49.036;9.344;2022-12-07T15:15:41;22.20;;;15.10;;
46363;SDS011;32071;49.036;9.344;2022-12-07T15:18:07;28.57;;;17.80;;
46363;SDS011;32071;49.036;9.344;2022-12-07T15:20:33;20.63;;;12.23;;
46363;SDS011;32071;49.036;9.344;2022-12-07T15:22:58;28.37;;;14.00;;
46363;SDS011;32071;49.036;9.344;2022-12-07T15:25:24;24.83;;;13.47;;
46363;SDS011;32071;49.036;9.344;2022-12-07T15:27:49;31.20;;;15.07;;
46363;SDS011;32071;49.036;9.344;2022-12-07T15:30:15;28.73;;;15.07;;
46363;SDS011;32071;49.036;9.344;2022-12-07T15:32:41;30.57;;;16.63;;
46363;SDS011;32071;49.036;9.344;2022-12-07T15:35:06;33.00;;;18.77;;
46363;SDS011;32071;49.036;9.344;2022-12-07T15:37:32;35.40;;;19.13;;
46363;SDS011;32071;49.036;9.344;2022-12-07T15:39:58;38.50;;;19.87;;
46363;SDS011;32071;49.036;9.344;2022-12-07T15:42:23;27.40;;;15.47;;
46363;SDS011;32071;49.036;9.344;2022-12-07T15:44:49;21.97;;;11.27;;
46363;SDS011;32071;49.036;9.344;2022-12-07T15:47:31;19.50;;;10.63;;
46363;SDS011;32071;49.036;9.344;2022-12-07T15:49:59;19.87;;;10.80;;
46363;SDS011;32071;49.036;9.344;2022-12-07T15:52:24;22.63;;;11.53;;
46363;SDS011;32071;49.036;9.344;2022-12-07T15:54:50;21.97;;;12.23;;
46363;SDS011;32071;49.036;9.344;2022-12-07T15:57:15;24.47;;;12.80;;
46363;SDS011;32071;49.036;9.344;2022-12-07T15:59:41;22.03;;;12.23;;
46363;SDS011;32071;49.036;9.344;2022-12-07T16:02:08;25.00;;;14.93;;
46363;SDS011;32071;49.036;9.344;2022-12-07T16:04:35;42.30;;;27.00;;
46363;SDS011;32071;49.036;9.344;2022-12-07T16:07:01;40.57;;;22.53;;
46363;SDS011;32071;49.036;9.344;2022-12-07T16:09:26;35.30;;;21.60;;
46363;SDS011;32071;49.036;9.344;2022-12-07T16:11:52;39.40;;;23.33;;
46363;SDS011;32071;49.036;9.344;2022-12-07T16:14:18;34.77;;;18.70;;
46363;SDS011;32071;49.036;9.344;2022-12-07T16:16:43;40.20;;;21.40;;
46363;SDS011;32071;49.036;9.344;2022-12-07T16:19:09;36.63;;;17.83;;
46363;SDS011;32071;49.036;9.344;2022-12-07T16:21:35;29.30;;;18.57;;
46363;SDS011;32071;49.036;9.344;2022-12-07T16:24:01;39.37;;;20.97;;
46363;SDS011;32071;49.036;9.344;2022-12-07T16:26:27;71.60;;;33.90;;
46363;SDS011;32071;49.036;9.344;2022-12-07T16:28:53;136.87;;;63.00;;
46363;SDS011;32071;49.036;9.344;2022-12-07T16:31:21;151.40;;;64.43;;
46363;SDS011;32071;49.036;9.344;2022-12-07T16:33:49;41.20;;;23.40;;
46363;SDS011;32071;49.036;9.344;2022-12-07T16:36:15;61.03;;;34.20;;
46363;SDS011;32071;49.036;9.344;2022-12-07T16:38:42;63.70;;;30.47;;
46363;SDS011;32071;49.036;9.344;2022-12-07T16:41:09;31.47;;;17.47;;
46363;SDS011;32071;49.036;9.344;2022-12-07T16:43:35;26.67;;;16.00;;
46363;SDS011;32071;49.036;9.344;2022-12-07T16:46:01;34.77;;;17.37;;
46363;SDS011;32071;49.036;9.344;2022-12-07T16:48:27;29.53;;;15.43;;
46363;SDS011;32071;49.036;9.344;2022-12-07T16:50:53;29.90;;;16.53;;
46363;SDS011;32071;49.036;9.344;2022-12-07T16:53:20;26.93;;;15.97;;
46363;SDS011;32071;49.036;9.344;2022-12-07T16:55:46;62.93;;;30.37;;
46363;SDS011;32071;49.036;9.344;2022-12-07T16:58:12;47.97;;;25.07;;
46363;SDS011;32071;49.036;9.344;2022-12-07T17:00:40;61.03;;;35.50;;
46363;SDS011;32071;49.036;9.344;2022-12-07T17:03:06;42.37;;;23.47;;
46363;SDS011;32071;49.036;9.344;2022-12-07T17:05:32;42.83;;;20.97;;
46363;SDS011;32071;49.036;9.344;2022-12-07T17:07:58;34.97;;;21.33;;
46363;SDS011;32071;49.036;9.344;2022-12-07T17:10:24;38.97;;;23.60;;
46363;SDS011;32071;49.036;9.344;2022-12-07T17:12:51;32.43;;;18.43;;
46363;SDS011;32071;49.036;9.344;2022-12-07T17:15:16;34.50;;;19.00;;